createdAt,value
2018-09-09T00:01:24.390Z,420.00
2018-09-09T00:02:24.362Z,424.00
2018-09-09T00:04:17.330Z,428.00
2018-09-09T00:05:17.362Z,420.00
2018-09-09T00:07:10.442Z,416.00
2018-09-09T00:08:10.326Z,412.00
2018-09-09T00:10:03.336Z,412.00
2018-09-09T00:11:03.333Z,412.00
2018-09-09T00:12:56.462Z,408.00
2018-09-09T00:13:56.326Z,404.00
2018-09-09T00:15:49.291Z,404.00
2018-09-09T00:16:49.317Z,408.00
2018-09-09T00:18:42.348Z,412.00
2018-09-09T00:19:42.299Z,416.00
2018-09-09T00:21:35.300Z,408.00
2018-09-09T00:22:35.306Z,408.00
2018-09-09T00:24:28.392Z,408.00
2018-09-09T00:25:28.299Z,412.00
2018-09-09T00:27:21.279Z,424.00
2018-09-09T00:28:21.293Z,436.00
2018-09-09T00:30:14.308Z,456.00
2018-09-09T00:31:14.286Z,464.00
2018-09-09T00:33:07.262Z,484.00
2018-09-09T00:34:07.285Z,480.00
2018-09-09T00:36:00.366Z,488.00
2018-09-09T00:37:00.276Z,488.00
2018-09-09T00:38:53.269Z,488.00
2018-09-09T00:39:53.268Z,488.00
2018-09-09T00:41:46.358Z,492.00
2018-09-09T00:42:46.280Z,500.00
2018-09-09T00:44:39.281Z,508.00
2018-09-09T00:45:39.285Z,508.00
2018-09-09T00:47:32.387Z,512.00
2018-09-09T00:48:32.280Z,508.00
2018-09-09T00:50:25.253Z,516.00
2018-09-09T00:51:25.270Z,516.00
2018-09-09T00:53:18.364Z,524.00
2018-09-09T00:54:18.265Z,536.00
2018-09-09T00:56:11.251Z,544.00
2018-09-09T00:57:11.273Z,548.00
2018-09-09T00:59:05.008Z,552.00
2018-09-09T01:00:04.260Z,556.00
2018-09-09T01:01:57.243Z,560.00
2018-09-09T01:02:57.247Z,564.00
2018-09-09T01:04:50.282Z,580.00
2018-09-09T01:05:50.255Z,580.00
2018-09-09T01:07:43.214Z,596.00
2018-09-09T01:08:43.231Z,604.00
2018-09-09T01:10:36.304Z,624.00
2018-09-09T01:11:36.223Z,636.00
2018-09-09T01:13:29.216Z,640.00
2018-09-09T01:14:29.218Z,656.00
2018-09-09T01:16:22.309Z,660.00
2018-09-09T01:17:22.229Z,660.00
2018-09-09T01:19:15.192Z,664.00
2018-09-09T01:20:15.217Z,668.00
2018-09-09T01:22:08.452Z,680.00
2018-09-09T01:23:08.190Z,696.00
2018-09-09T01:25:01.683Z,708.00
2018-09-09T01:26:01.205Z,712.00
2018-09-09T01:27:54.301Z,724.00
2018-09-09T01:28:54.214Z,736.00
2018-09-09T01:30:47.179Z,776.00
2018-09-09T01:31:47.213Z,796.00
2018-09-09T01:33:40.283Z,816.00
2018-09-09T01:34:40.194Z,832.00
2018-09-09T01:36:33.169Z,872.00
2018-09-09T01:37:33.188Z,896.00
2018-09-09T01:39:26.260Z,924.00
2018-09-09T01:40:26.184Z,936.00
2018-09-09T01:42:19.159Z,940.00
2018-09-09T01:43:19.193Z,940.00
2018-09-09T01:45:12.207Z,924.00
2018-09-09T01:46:12.159Z,920.00
2018-09-09T01:48:05.148Z,912.00
2018-09-09T01:49:05.165Z,912.00
2018-09-09T01:50:58.251Z,904.00
2018-09-09T01:51:58.172Z,900.00
2018-09-09T01:53:51.125Z,908.00
2018-09-09T01:54:51.163Z,896.00
2018-09-09T01:56:44.226Z,900.00
2018-09-09T01:57:44.174Z,900.00
2018-09-09T01:59:37.125Z,924.00
2018-09-09T02:00:37.152Z,928.00
2018-09-09T02:02:30.435Z,952.00
2018-09-09T02:03:30.135Z,964.00
2018-09-09T02:05:23.129Z,980.00
2018-09-09T02:06:23.129Z,976.00
2018-09-09T02:08:16.219Z,980.00
2018-09-09T02:09:16.138Z,996.00
2018-09-09T02:11:09.110Z,1064.00
2018-09-09T02:12:09.119Z,1080.00
2018-09-09T02:14:02.135Z,1132.00
2018-09-09T02:15:02.126Z,1152.00
2018-09-09T02:16:55.090Z,1172.00
2018-09-09T02:17:55.122Z,1208.00
2018-09-09T02:19:48.324Z,1216.00
2018-09-09T02:20:48.094Z,1244.00
2018-09-09T02:22:41.089Z,1240.00
2018-09-09T02:23:41.156Z,1248.00
2018-09-09T02:25:34.209Z,1252.00
2018-09-09T02:26:34.110Z,1256.00
2018-09-09T02:28:27.075Z,1300.00
2018-09-09T02:29:27.094Z,1336.00
2018-09-09T02:31:20.627Z,1412.00
2018-09-09T02:32:20.087Z,1464.00
2018-09-09T02:34:13.066Z,1540.00
2018-09-09T02:35:13.082Z,1572.00
2018-09-09T02:37:06.168Z,1608.00
2018-09-09T02:38:06.076Z,1640.00
2018-09-09T02:39:59.056Z,1632.00
2018-09-09T02:40:59.101Z,1624.00
2018-09-09T02:42:52.377Z,1708.00
2018-09-09T02:43:52.152Z,1572.00
2018-09-09T02:45:45.072Z,1476.00
2018-09-09T02:46:45.070Z,1484.00
2018-09-09T02:48:38.360Z,1540.00
2018-09-09T02:49:38.069Z,1600.00
2018-09-09T02:51:31.058Z,1724.00
2018-09-09T02:52:31.066Z,1708.00
2018-09-09T02:54:24.162Z,1804.00
2018-09-09T02:55:24.061Z,1684.00
2018-09-09T02:57:17.037Z,1652.00
2018-09-09T02:58:17.055Z,1624.00
2018-09-09T03:00:10.083Z,1584.00
2018-09-09T03:01:10.062Z,1572.00
2018-09-09T03:03:03.047Z,1572.00
2018-09-09T03:04:03.049Z,1520.00
2018-09-09T03:05:56.186Z,1512.00
2018-09-09T03:06:56.044Z,1520.00
2018-09-09T03:08:49.047Z,1556.00
2018-09-09T03:09:49.029Z,1584.00
2018-09-09T03:11:42.143Z,1676.00
2018-09-09T03:12:42.028Z,1672.00
2018-09-09T03:14:35.034Z,1696.00
2018-09-09T03:15:35.036Z,1700.00
2018-09-09T03:17:28.264Z,1720.00
2018-09-09T03:18:28.032Z,1732.00
2018-09-09T03:20:21.010Z,1812.00
2018-09-09T03:21:21.027Z,1764.00
2018-09-09T03:23:14.051Z,1736.00
2018-09-09T03:24:14.044Z,1736.00
2018-09-09T03:26:07.012Z,1764.00
2018-09-09T03:27:07.024Z,1752.00
2018-09-09T03:29:00.126Z,1768.00
2018-09-09T03:30:00.035Z,1792.00
2018-09-09T03:31:53.004Z,1792.00
2018-09-09T03:32:53.036Z,1780.00
2018-09-09T03:34:46.119Z,1756.00
2018-09-09T03:35:46.033Z,1744.00
2018-09-09T03:37:39.023Z,1744.00
2018-09-09T03:38:39.026Z,1796.00
2018-09-09T03:40:32.640Z,1764.00
2018-09-09T03:41:32.024Z,1776.00
2018-09-09T03:43:25.017Z,1800.00
2018-09-09T03:44:25.034Z,1800.00
2018-09-09T03:46:18.041Z,1812.00
2018-09-09T03:47:18.018Z,1808.00
2018-09-09T03:49:11.002Z,1816.00
2018-09-09T03:50:11.020Z,1832.00
2018-09-09T03:52:04.529Z,1836.00
2018-09-09T03:53:04.019Z,1836.00
2018-09-09T03:54:57.014Z,1836.00
2018-09-09T03:55:57.033Z,1820.00
2018-09-09T03:57:50.110Z,1896.00
2018-09-09T03:58:50.030Z,1828.00
2018-09-09T04:00:43.001Z,1828.00
2018-09-09T04:01:43.016Z,1820.00
2018-09-09T04:03:36.268Z,1804.00
2018-09-09T04:04:36.016Z,1784.00
2018-09-09T04:06:29.008Z,1732.00
2018-09-09T04:07:29.022Z,1724.00
2018-09-09T04:09:22.244Z,1720.00
2018-09-09T04:10:22.020Z,1712.00
2018-09-09T04:12:15.005Z,1732.00
2018-09-09T04:13:15.005Z,1740.00
2018-09-09T04:15:08.239Z,1784.00
2018-09-09T04:16:08.020Z,1784.00
2018-09-09T04:18:01.001Z,1792.00
2018-09-09T04:19:01.016Z,1788.00
2018-09-09T04:20:54.105Z,1776.00
2018-09-09T04:21:53.992Z,1784.00
2018-09-09T04:23:47.000Z,1756.00
2018-09-09T04:24:47.010Z,1756.00
2018-09-09T04:26:40.135Z,1744.00
2018-09-09T04:27:40.021Z,1736.00
2018-09-09T04:29:32.990Z,1764.00
2018-09-09T04:30:33.009Z,1776.00
2018-09-09T04:32:26.083Z,1824.00
2018-09-09T04:33:26.010Z,1876.00
2018-09-09T04:35:18.996Z,1852.00
2018-09-09T04:36:19.013Z,1844.00
2018-09-09T04:38:12.119Z,1860.00
2018-09-09T04:39:12.022Z,1860.00
2018-09-09T04:41:05.026Z,1876.00
2018-09-09T04:42:05.041Z,1880.00
2018-09-09T04:43:58.259Z,1868.00
2018-09-09T04:44:58.030Z,1880.00
2018-09-09T04:46:51.009Z,1872.00
2018-09-09T04:47:51.039Z,1884.00
2018-09-09T04:49:44.334Z,1916.00
2018-09-09T04:50:44.043Z,1912.00
2018-09-09T04:52:37.042Z,2028.00
2018-09-09T04:53:37.054Z,2040.00
2018-09-09T04:55:30.141Z,2076.00
2018-09-09T04:56:30.071Z,2112.00
2018-09-09T04:58:23.028Z,2164.00
2018-09-09T04:59:23.060Z,2152.00
2018-09-09T05:01:29.278Z,2164.00
2018-09-09T05:02:16.072Z,2128.00
2018-09-09T05:04:09.049Z,2104.00
2018-09-09T05:05:09.080Z,2068.00
2018-09-09T05:07:02.174Z,2072.00
2018-09-09T05:08:02.124Z,2064.00
2018-09-09T05:09:55.031Z,2076.00
2018-09-09T05:10:55.073Z,2088.00
2018-09-09T05:12:48.333Z,1940.00
2018-09-09T05:13:48.092Z,1936.00
2018-09-09T05:15:41.064Z,1912.00
2018-09-09T05:16:41.079Z,1912.00
2018-09-09T05:18:34.310Z,1908.00
2018-09-09T05:19:34.085Z,1944.00
2018-09-09T05:21:27.049Z,1976.00
2018-09-09T05:22:27.066Z,1972.00
2018-09-09T05:24:20.150Z,2036.00
2018-09-09T05:25:20.077Z,2076.00
2018-09-09T05:27:13.054Z,2056.00
2018-09-09T05:28:13.081Z,2056.00
2018-09-09T05:30:06.150Z,2016.00
2018-09-09T05:31:06.049Z,2000.00
2018-09-09T05:32:59.057Z,1952.00
2018-09-09T05:33:59.072Z,1900.00
2018-09-09T05:35:52.145Z,1844.00
2018-09-09T05:36:52.080Z,1816.00
2018-09-09T05:38:45.061Z,1752.00
2018-09-09T05:39:45.066Z,1724.00
2018-09-09T05:41:38.111Z,1744.00
2018-09-09T05:42:38.077Z,1788.00
2018-09-09T05:44:31.076Z,1804.00
2018-09-09T05:45:31.080Z,1836.00
2018-09-09T05:47:24.305Z,1800.00
2018-09-09T05:48:24.097Z,1764.00
2018-09-09T05:50:17.058Z,1652.00
2018-09-09T05:51:17.092Z,1620.00
2018-09-09T05:53:10.334Z,1572.00
2018-09-09T05:54:10.086Z,1580.00
2018-09-09T05:56:03.081Z,1608.00
2018-09-09T05:57:03.099Z,1580.00
2018-09-09T05:58:56.221Z,1676.00
2018-09-09T05:59:56.084Z,1680.00
2018-09-09T06:01:49.079Z,1696.00
2018-09-09T06:02:49.086Z,1660.00
2018-09-09T06:04:42.414Z,1632.00
2018-09-09T06:05:42.100Z,1640.00
2018-09-09T06:07:35.086Z,1672.00
2018-09-09T06:08:35.104Z,1736.00
2018-09-09T06:10:28.240Z,1660.00
2018-09-09T06:11:28.109Z,1724.00
2018-09-09T06:13:21.076Z,1752.00
2018-09-09T06:14:21.110Z,1808.00
2018-09-09T06:16:14.185Z,1988.00
2018-09-09T06:17:14.116Z,2016.00
2018-09-09T06:19:07.100Z,2160.00
2018-09-09T06:20:07.115Z,2284.00
2018-09-09T06:22:00.203Z,2420.00
2018-09-09T06:23:00.132Z,2464.00
2018-09-09T06:24:53.110Z,2532.00
2018-09-09T06:25:53.126Z,2432.00
2018-09-09T06:27:46.332Z,2412.00
2018-09-09T06:28:46.119Z,2388.00
2018-09-09T06:30:39.093Z,2348.00
2018-09-09T06:31:39.116Z,2364.00
2018-09-09T06:33:32.253Z,2212.00
2018-09-09T06:34:32.119Z,2192.00
2018-09-09T06:36:25.105Z,2040.00
2018-09-09T06:37:25.132Z,2096.00
2018-09-09T06:39:18.223Z,2132.00
2018-09-09T06:40:18.147Z,2196.00
2018-09-09T06:42:11.131Z,2196.00
2018-09-09T06:43:11.147Z,2160.00
2018-09-09T06:45:04.273Z,2052.00
2018-09-09T06:46:04.150Z,1992.00
2018-09-09T06:47:57.143Z,1812.00
2018-09-09T06:48:57.165Z,1844.00
2018-09-09T06:51:11.697Z,1792.00
2018-09-09T06:51:50.147Z,1756.00
2018-09-09T06:53:43.146Z,1720.00
2018-09-09T06:54:43.147Z,1720.00
2018-09-09T06:56:36.413Z,1800.00
2018-09-09T06:57:36.211Z,1808.00
2018-09-09T06:59:29.207Z,1876.00
2018-09-09T07:00:29.202Z,1876.00
2018-09-09T07:02:22.517Z,1936.00
2018-09-09T07:03:22.213Z,1864.00
2018-09-09T07:05:15.213Z,1804.00
2018-09-09T07:06:15.214Z,1884.00
2018-09-09T07:08:08.300Z,1976.00
2018-09-09T07:09:08.215Z,1884.00
2018-09-09T07:11:01.338Z,1984.00
2018-09-09T07:12:01.350Z,1904.00
2018-09-09T07:13:54.485Z,2220.00
2018-09-09T07:14:54.226Z,2364.00
2018-09-09T07:16:47.205Z,2544.00
2018-09-09T07:17:47.213Z,2536.00
2018-09-09T07:19:40.331Z,2644.00
2018-09-09T07:20:40.238Z,2784.00
2018-09-09T07:22:33.274Z,2468.00
2018-09-09T07:23:33.244Z,2516.00
2018-09-09T07:25:26.315Z,2112.00
2018-09-09T07:26:26.232Z,2100.00
2018-09-09T07:28:19.236Z,2384.00
2018-09-09T07:29:19.260Z,2620.00
2018-09-09T07:31:12.398Z,2888.00
2018-09-09T07:32:12.247Z,3008.00
2018-09-09T07:34:05.246Z,3156.00
2018-09-09T07:35:05.277Z,3004.00
2018-09-09T07:36:58.533Z,2700.00
2018-09-09T07:37:58.281Z,2624.00
2018-09-09T07:39:51.250Z,2436.00
2018-09-09T07:40:51.260Z,2288.00
2018-09-09T07:42:44.361Z,2004.00
2018-09-09T07:43:44.349Z,1936.00
2018-09-09T07:45:37.343Z,1820.00
2018-09-09T07:46:37.335Z,1772.00
2018-09-09T07:48:30.452Z,1652.00
2018-09-09T07:49:30.369Z,1632.00
2018-09-09T07:51:23.351Z,1608.00
2018-09-09T07:52:23.343Z,1604.00
2018-09-09T07:54:16.455Z,1588.00
2018-09-09T07:55:16.371Z,1580.00
2018-09-09T07:57:09.356Z,1588.00
2018-09-09T07:58:09.360Z,1616.00
2018-09-09T08:00:02.488Z,1648.00
2018-09-09T08:01:02.351Z,1676.00
2018-09-09T08:02:55.356Z,1628.00
2018-09-09T08:03:55.413Z,1600.00
2018-09-09T08:05:48.460Z,1532.00
2018-09-09T08:06:48.379Z,1512.00
2018-09-09T08:08:41.356Z,1488.00
2018-09-09T08:09:41.387Z,1488.00
2018-09-09T08:11:34.613Z,1528.00
2018-09-09T08:12:34.374Z,1564.00
2018-09-09T08:14:27.351Z,1620.00
2018-09-09T08:15:27.370Z,1644.00
2018-09-09T08:17:20.609Z,1608.00
2018-09-09T08:18:20.379Z,1564.00
2018-09-09T08:20:13.372Z,1428.00
2018-09-09T08:21:13.373Z,1380.00
2018-09-09T08:23:06.456Z,1280.00
2018-09-09T08:24:06.376Z,1256.00
2018-09-09T08:25:59.374Z,1244.00
2018-09-09T08:26:59.475Z,1252.00
2018-09-09T08:28:52.593Z,1244.00
2018-09-09T08:29:52.395Z,1212.00
2018-09-09T08:31:45.367Z,1156.00
2018-09-09T08:32:45.385Z,1136.00
2018-09-09T08:34:38.566Z,1124.00
2018-09-09T08:35:38.454Z,1128.00
2018-09-09T08:37:31.457Z,1144.00
2018-09-09T08:38:31.497Z,1172.00
2018-09-09T08:40:24.594Z,1380.00
2018-09-09T08:41:24.474Z,1600.00
2018-09-09T08:43:17.469Z,1528.00
2018-09-09T08:44:17.508Z,1476.00
2018-09-09T08:46:10.511Z,1352.00
2018-09-09T08:47:10.503Z,1332.00
2018-09-09T08:49:03.484Z,1380.00
2018-09-09T08:50:03.508Z,1444.00
2018-09-09T08:51:56.696Z,1592.00
2018-09-09T08:52:56.516Z,1712.00
2018-09-09T08:54:49.470Z,1896.00
2018-09-09T08:55:49.499Z,2016.00
2018-09-09T08:57:42.679Z,3168.00
2018-09-09T08:58:42.498Z,6988.00
2018-09-09T09:00:35.487Z,5592.00
2018-09-09T09:01:35.547Z,4704.00
2018-09-09T09:03:28.634Z,3836.00
2018-09-09T09:04:28.521Z,3724.00
2018-09-09T09:06:21.504Z,5420.00
2018-09-09T09:07:21.596Z,7260.00
2018-09-09T09:09:14.639Z,8752.00
2018-09-09T09:10:14.523Z,8920.00
2018-09-09T09:12:07.513Z,5616.00
2018-09-09T09:13:07.577Z,5568.00
2018-09-09T09:15:00.622Z,3040.00
2018-09-09T09:16:00.520Z,2704.00
2018-09-09T09:17:53.523Z,2136.00
2018-09-09T09:18:53.571Z,2080.00
2018-09-09T09:20:46.668Z,1896.00
2018-09-09T09:21:46.556Z,1936.00
2018-09-09T09:23:39.615Z,2180.00
2018-09-09T09:24:39.575Z,2292.00
2018-09-09T09:26:32.650Z,2208.00
2018-09-09T09:27:32.548Z,2144.00
2018-09-09T09:29:25.539Z,2124.00
2018-09-09T09:30:25.552Z,2128.00
2018-09-09T09:32:18.809Z,2076.00
2018-09-09T09:33:18.562Z,2032.00
2018-09-09T09:35:11.565Z,1964.00
2018-09-09T09:36:11.570Z,1948.00
2018-09-09T09:38:04.796Z,1928.00
2018-09-09T09:39:04.582Z,1916.00
2018-09-09T09:40:57.541Z,1840.00
2018-09-09T09:41:57.590Z,1804.00
2018-09-09T09:43:50.786Z,1732.00
2018-09-09T09:44:50.628Z,1720.00
2018-09-09T09:46:43.567Z,1652.00
2018-09-09T09:47:43.564Z,1624.00
2018-09-09T09:49:36.617Z,1572.00
2018-09-09T09:50:36.578Z,1536.00
2018-09-09T09:52:29.559Z,1500.00
2018-09-09T09:53:29.584Z,1480.00
2018-09-09T09:55:22.720Z,1448.00
2018-09-09T09:56:22.593Z,1440.00
2018-09-09T09:58:15.764Z,1396.00
2018-09-09T09:59:15.781Z,1376.00
2018-09-09T10:01:08.868Z,1332.00
2018-09-09T10:02:08.781Z,1304.00
2018-09-09T10:04:01.812Z,1256.00
2018-09-09T10:05:01.833Z,1212.00
2018-09-09T10:06:54.930Z,1156.00
2018-09-09T10:07:54.836Z,1132.00
2018-09-09T10:09:47.824Z,1096.00
2018-09-09T10:10:47.838Z,1080.00
2018-09-09T10:12:40.920Z,1780.00
2018-09-09T10:13:40.845Z,1456.00
2018-09-09T10:15:33.826Z,908.00
2018-09-09T10:16:33.848Z,896.00
2018-09-09T10:18:27.080Z,872.00
2018-09-09T10:19:26.851Z,844.00
2018-09-09T10:21:19.847Z,800.00
2018-09-09T10:22:19.865Z,764.00
2018-09-09T10:24:13.091Z,712.00
2018-09-09T10:25:12.856Z,688.00
2018-09-09T10:27:05.855Z,636.00
2018-09-09T10:28:05.858Z,628.00
2018-09-09T10:29:59.000Z,584.00
2018-09-09T10:30:58.849Z,568.00
2018-09-09T10:32:51.856Z,540.00
2018-09-09T10:33:51.877Z,508.00
2018-09-09T10:35:44.974Z,704.00
2018-09-09T10:36:44.862Z,776.00
2018-09-09T10:38:37.845Z,616.00
2018-09-09T10:39:37.873Z,452.00
2018-09-09T10:41:30.963Z,336.00
2018-09-09T10:42:30.861Z,308.00
2018-09-09T10:44:23.844Z,264.00
2018-09-09T10:45:23.862Z,244.00
2018-09-09T10:47:16.958Z,212.00
2018-09-09T10:48:16.867Z,200.00
2018-09-09T10:50:09.847Z,176.00
2018-09-09T10:51:09.882Z,160.00
2018-09-09T10:53:03.124Z,136.00
2018-09-09T10:54:02.872Z,120.00
2018-09-09T10:55:55.868Z,104.00
2018-09-09T10:56:55.872Z,96.00
2018-09-09T10:58:48.973Z,76.00
2018-09-09T10:59:48.896Z,68.00
2018-09-09T11:01:41.871Z,52.00
2018-09-09T11:02:41.888Z,44.00
2018-09-09T11:04:34.884Z,32.00
2018-09-09T11:05:34.876Z,28.00
2018-09-09T11:07:27.861Z,20.00
2018-09-09T11:08:27.878Z,20.00
2018-09-09T11:10:21.140Z,12.00
2018-09-09T11:11:20.895Z,12.00
2018-09-09T11:13:13.871Z,8.00
2018-09-09T11:14:13.880Z,8.00
2018-09-09T11:16:06.958Z,4.00
2018-09-09T11:17:06.875Z,0.00
2018-09-09T11:18:59.886Z,4.00
2018-09-09T11:19:59.871Z,0.00
2018-09-09T11:21:53.052Z,0.00
2018-09-09T11:22:52.888Z,0.00
2018-09-09T11:24:45.934Z,4.00
2018-09-09T11:25:45.892Z,0.00
2018-09-09T11:27:39.013Z,0.00
2018-09-09T11:28:38.887Z,4.00
2018-09-09T11:30:31.877Z,0.00
2018-09-09T11:31:31.875Z,0.00
2018-09-09T11:33:25.098Z,0.00
2018-09-09T11:34:24.877Z,0.00
2018-09-09T11:36:17.893Z,0.00
2018-09-09T11:37:17.876Z,0.00
2018-09-09T11:39:10.971Z,0.00
2018-09-09T11:40:10.886Z,0.00
2018-09-09T11:42:03.863Z,0.00
2018-09-09T11:43:03.891Z,0.00
2018-09-09T11:44:56.997Z,0.00
2018-09-09T11:45:56.895Z,0.00
2018-09-09T11:47:49.858Z,0.00
2018-09-09T11:48:49.915Z,4.00
2018-09-09T11:50:42.967Z,0.00
2018-09-09T11:51:42.872Z,0.00
2018-09-09T11:53:35.857Z,4.00
2018-09-09T11:54:35.889Z,0.00
2018-09-09T11:56:28.962Z,0.00
2018-09-09T11:57:28.867Z,0.00
2018-09-09T11:59:21.872Z,0.00
2018-09-09T12:00:21.867Z,0.00
2018-09-09T12:02:15.158Z,0.00
2018-09-09T12:03:14.864Z,0.00
2018-09-09T12:05:07.864Z,0.00
2018-09-09T12:06:07.860Z,0.00
2018-09-09T12:08:01.124Z,0.00
2018-09-09T12:09:00.885Z,0.00
2018-09-09T12:10:53.858Z,4.00
2018-09-09T12:11:53.890Z,0.00
2018-09-09T12:13:46.990Z,0.00
2018-09-09T12:14:46.872Z,0.00
2018-09-09T12:16:39.840Z,0.00
2018-09-09T12:17:39.871Z,0.00
2018-09-09T12:19:32.958Z,4.00
2018-09-09T12:20:32.879Z,4.00
2018-09-09T12:22:25.844Z,0.00
2018-09-09T12:23:25.961Z,0.00
2018-09-09T12:25:18.954Z,0.00
2018-09-09T12:26:18.875Z,4.00
2018-09-09T12:28:11.852Z,0.00
2018-09-09T12:29:11.849Z,0.00
2018-09-09T12:31:04.905Z,4.00
2018-09-09T12:32:04.905Z,0.00
2018-09-09T12:33:57.859Z,0.00
2018-09-09T12:34:57.863Z,0.00
2018-09-09T12:36:50.964Z,0.00
2018-09-09T12:37:50.956Z,0.00
2018-09-09T12:39:43.845Z,0.00
2018-09-09T12:40:43.879Z,0.00
2018-09-09T12:42:37.109Z,0.00
2018-09-09T12:43:36.862Z,0.00
2018-09-09T12:45:29.861Z,0.00
2018-09-09T12:46:29.876Z,0.00
2018-09-09T12:48:22.971Z,0.00
2018-09-09T12:49:22.867Z,0.00
2018-09-09T12:51:15.850Z,0.00
2018-09-09T12:52:15.862Z,0.00
2018-09-09T12:54:09.136Z,0.00
2018-09-09T12:55:08.885Z,0.00
2018-09-09T12:57:02.365Z,0.00
2018-09-09T12:58:01.937Z,0.00
2018-09-09T12:59:54.891Z,0.00
2018-09-09T13:00:54.893Z,0.00
2018-09-09T13:02:47.933Z,0.00
2018-09-09T13:03:48.123Z,0.00
2018-09-09T13:05:41.001Z,0.00
2018-09-09T13:06:40.924Z,0.00
2018-09-09T13:08:34.194Z,0.00
2018-09-09T13:09:34.163Z,0.00
2018-09-09T13:11:27.258Z,0.00
2018-09-09T13:12:27.166Z,0.00
2018-09-09T13:14:21.146Z,0.00
2018-09-09T13:15:21.168Z,0.00
2018-09-09T13:17:14.264Z,0.00
2018-09-09T13:18:14.143Z,0.00
2018-09-09T13:20:07.205Z,0.00
2018-09-09T13:21:07.254Z,0.00
2018-09-09T13:23:00.921Z,0.00
2018-09-09T13:24:00.402Z,0.00
2018-09-09T13:25:53.910Z,0.00
2018-09-09T13:26:53.454Z,0.00
2018-09-09T13:28:46.719Z,0.00
2018-09-09T13:29:46.466Z,0.00
2018-09-09T13:31:39.470Z,0.00
2018-09-09T13:32:39.488Z,0.00
2018-09-09T13:34:32.573Z,0.00
2018-09-09T13:35:32.484Z,0.00
2018-09-09T13:37:25.480Z,0.00
2018-09-09T13:38:25.489Z,0.00
2018-09-09T13:40:18.765Z,0.00
2018-09-09T13:41:18.486Z,0.00
2018-09-09T13:43:11.459Z,0.00
2018-09-09T13:44:11.486Z,0.00
2018-09-09T13:46:04.781Z,0.00
2018-09-09T13:47:04.689Z,0.00
2018-09-09T13:48:57.681Z,0.00
2018-09-09T13:49:57.694Z,0.00
2018-09-09T13:51:50.780Z,0.00
2018-09-09T13:52:50.672Z,0.00
2018-09-09T13:54:43.800Z,0.00
2018-09-09T13:55:43.793Z,0.00
2018-09-09T13:57:36.884Z,0.00
2018-09-09T13:58:36.808Z,0.00
2018-09-09T14:00:29.771Z,0.00
2018-09-09T14:01:29.801Z,0.00
2018-09-09T14:03:23.041Z,0.00
2018-09-09T14:04:22.796Z,0.00
2018-09-09T14:06:15.757Z,0.00
2018-09-09T14:07:15.799Z,0.00
2018-09-09T14:09:08.883Z,0.00
2018-09-09T14:10:08.789Z,0.00
2018-09-09T14:12:01.751Z,0.00
2018-09-09T14:13:01.781Z,0.00
2018-09-09T14:14:54.850Z,0.00
2018-09-09T14:15:54.773Z,0.00
2018-09-09T14:17:47.736Z,0.00
2018-09-09T14:18:47.752Z,0.00
2018-09-09T14:20:40.775Z,0.00
2018-09-09T14:21:40.751Z,0.00
2018-09-09T14:23:33.749Z,0.00
2018-09-09T14:24:33.735Z,0.00
2018-09-09T14:26:26.777Z,0.00
2018-09-09T14:27:26.754Z,0.00
2018-09-09T14:29:19.761Z,0.00
2018-09-09T14:30:19.778Z,0.00
2018-09-09T14:32:12.782Z,0.00
2018-09-09T14:33:12.766Z,0.00
2018-09-09T14:35:05.760Z,0.00
2018-09-09T14:36:05.760Z,0.00
2018-09-09T14:37:58.860Z,0.00
2018-09-09T14:38:58.752Z,0.00
2018-09-09T14:40:51.732Z,0.00
2018-09-09T14:41:51.747Z,0.00
2018-09-09T14:43:44.990Z,0.00
2018-09-09T14:44:44.753Z,0.00
2018-09-09T14:46:37.719Z,0.00
2018-09-09T14:47:37.756Z,0.00
2018-09-09T14:49:30.824Z,0.00
2018-09-09T14:50:30.732Z,0.00
2018-09-09T14:52:23.731Z,0.00
2018-09-09T14:53:23.773Z,0.00
2018-09-09T14:55:16.771Z,0.00
2018-09-09T14:56:16.734Z,0.00
2018-09-09T14:58:09.719Z,0.00
2018-09-09T14:59:09.756Z,0.00
2018-09-09T15:01:02.844Z,0.00
2018-09-09T15:02:02.728Z,0.00
2018-09-09T15:03:55.706Z,0.00
2018-09-09T15:04:55.726Z,0.00
2018-09-09T15:06:49.252Z,0.00
2018-09-09T15:07:48.912Z,0.00
2018-09-09T15:09:41.909Z,0.00
2018-09-09T15:10:41.913Z,0.00
2018-09-09T15:12:35.052Z,0.00
2018-09-09T15:13:34.917Z,0.00
2018-09-09T15:15:27.881Z,0.00
2018-09-09T15:16:27.926Z,0.00
2018-09-09T15:18:20.989Z,0.00
2018-09-09T15:19:20.910Z,0.00
2018-09-09T15:21:13.887Z,0.00
2018-09-09T15:22:13.903Z,0.00
2018-09-09T15:24:07.008Z,0.00
2018-09-09T15:25:06.906Z,0.00
2018-09-09T15:26:59.869Z,0.00
2018-09-09T15:27:59.886Z,0.00
2018-09-09T15:29:53.057Z,0.00
2018-09-09T15:30:52.883Z,0.00
2018-09-09T15:32:45.872Z,0.00
2018-09-09T15:33:45.878Z,0.00
2018-09-09T15:35:38.935Z,0.00
2018-09-09T15:36:38.896Z,0.00
2018-09-09T15:38:33.053Z,0.00
2018-09-09T15:39:33.070Z,0.00
2018-09-09T15:41:26.342Z,0.00
2018-09-09T15:42:26.049Z,0.00
2018-09-09T15:44:19.122Z,0.00
2018-09-09T15:45:19.198Z,0.00
2018-09-09T15:47:12.277Z,0.00
2018-09-09T15:48:12.047Z,0.00
2018-09-09T15:50:05.046Z,0.00
2018-09-09T15:51:05.162Z,0.00
2018-09-09T15:52:58.502Z,0.00
2018-09-09T15:53:58.342Z,0.00
2018-09-09T15:55:51.338Z,0.00
2018-09-09T15:56:51.317Z,0.00
2018-09-09T15:58:44.390Z,0.00
2018-09-09T15:59:44.305Z,0.00
2018-09-09T16:01:37.275Z,0.00
2018-09-09T16:02:37.287Z,0.00
2018-09-09T16:04:30.628Z,0.00
2018-09-09T16:05:30.361Z,0.00
2018-09-09T16:07:23.412Z,0.00
2018-09-09T16:08:23.277Z,0.00
2018-09-09T16:10:16.457Z,0.00
2018-09-09T16:11:16.246Z,0.00
2018-09-09T16:13:09.234Z,0.00
2018-09-09T16:14:09.273Z,0.00
2018-09-09T16:16:02.346Z,0.00
2018-09-09T16:17:02.244Z,0.00
2018-09-09T16:18:55.232Z,0.00
2018-09-09T16:19:55.263Z,0.00
2018-09-09T16:21:48.281Z,0.00
2018-09-09T16:22:48.312Z,0.00
2018-09-09T16:24:41.318Z,0.00
2018-09-09T16:25:41.297Z,0.00
2018-09-09T16:27:35.261Z,0.00
2018-09-09T16:28:34.302Z,0.00
2018-09-09T16:30:27.223Z,0.00
2018-09-09T16:31:27.221Z,0.00
2018-09-09T16:33:20.249Z,0.00
2018-09-09T16:34:20.283Z,0.00
2018-09-09T16:36:13.256Z,0.00
2018-09-09T16:37:13.263Z,0.00
2018-09-09T16:39:06.321Z,0.00
2018-09-09T16:40:06.241Z,0.00
2018-09-09T16:41:59.212Z,0.00
2018-09-09T16:42:59.233Z,0.00
2018-09-09T16:44:52.267Z,0.00
2018-09-09T16:45:52.218Z,0.00
2018-09-09T16:47:45.185Z,0.00
2018-09-09T16:48:45.205Z,0.00
2018-09-09T16:50:38.347Z,0.00
2018-09-09T16:51:38.204Z,0.00
2018-09-09T16:53:31.197Z,0.00
2018-09-09T16:54:31.186Z,0.00
2018-09-09T16:56:24.502Z,0.00
2018-09-09T16:57:24.193Z,0.00
2018-09-09T16:59:17.171Z,0.00
2018-09-09T17:00:17.209Z,0.00
2018-09-09T17:02:10.207Z,0.00
2018-09-09T17:03:10.185Z,0.00
2018-09-09T17:05:03.366Z,0.00
2018-09-09T17:06:03.381Z,0.00
2018-09-09T17:07:56.481Z,0.00
2018-09-09T17:08:56.398Z,0.00
2018-09-09T17:10:49.361Z,0.00
2018-09-09T17:11:49.370Z,0.00
2018-09-09T17:13:42.629Z,0.00
2018-09-09T17:14:42.367Z,0.00
2018-09-09T17:16:35.367Z,0.00
2018-09-09T17:17:35.385Z,0.00
2018-09-09T17:19:28.455Z,0.00
2018-09-09T17:20:28.382Z,0.00
2018-09-09T17:22:21.362Z,0.00
2018-09-09T17:23:21.365Z,0.00
2018-09-09T17:25:14.635Z,0.00
2018-09-09T17:26:14.368Z,0.00
2018-09-09T17:28:07.385Z,0.00
2018-09-09T17:29:07.351Z,0.00
2018-09-09T17:31:00.458Z,0.00
2018-09-09T17:32:00.371Z,0.00
2018-09-09T17:33:53.332Z,0.00
2018-09-09T17:34:53.367Z,0.00
2018-09-09T17:36:46.400Z,0.00
2018-09-09T17:37:46.345Z,0.00
2018-09-09T17:39:39.339Z,0.00
2018-09-09T17:40:39.340Z,0.00
2018-09-09T17:42:32.383Z,0.00
2018-09-09T17:43:32.328Z,0.00
2018-09-09T17:45:25.326Z,0.00
2018-09-09T17:46:25.352Z,0.00
2018-09-09T17:48:18.426Z,0.00
2018-09-09T17:49:18.333Z,0.00
2018-09-09T17:51:11.336Z,0.00
2018-09-09T17:52:11.337Z,0.00
2018-09-09T17:54:04.588Z,0.00
2018-09-09T17:55:04.330Z,0.00
2018-09-09T17:56:57.328Z,0.00
2018-09-09T17:57:57.342Z,0.00
2018-09-09T17:59:51.394Z,0.00
2018-09-09T18:00:51.306Z,0.00
2018-09-09T18:02:44.338Z,0.00
2018-09-09T18:03:44.299Z,0.00
2018-09-09T18:05:37.583Z,0.00
2018-09-09T18:06:37.283Z,0.00
2018-09-09T18:08:30.270Z,0.00
2018-09-09T18:09:30.303Z,0.00
2018-09-09T18:11:23.422Z,0.00